Flugplatz Erbach

Für EDNE sind keine METAR/TAF Berichte vorhanden.
Es werden die Flugwettermeldungen vom Flugplatz Laupheim Airport in 13 km Entfernung angezeigt.

Bericht für ETHL

vom 18.07. um 00:20 UTC

Wind 2 kt aus 220°

Sichtweite 10 km oder mehr

gering bewölkt in 7000 ft

aufgebrochene Bewölkung in 24000 ft

Temperatur 15.0°C

Taupunkt 9.0°C

Luftfeuchtigkeit 67%

Luftdruck 1014 hPa

ETHL 180020Z 22002KT 9999 FEW070 BKN240 15/09 Q1014 BLU+
Keine Prognose (TAF) verfügbar.
Impressum